Time;durP1;ratioP1;P1;durP2;ratioP2;P2;SDS_P1;SDS_P2;PMS_P1;PMS_P2;Temp;Humidity;BMP_temperature;BMP_pressure;BME280_temperature;BME280_humidity;BME280_pressure;Samples;Min_cycle;Max_cycle;Signal;HPM_P1;HPM_P2
2022/12/30 00:01:23;;;;;;;;;;;;;;;5.17;100.00;100634.34;5050891;28;20540;-83
2022/12/30 00:03:49;;;;;;;;;;;;;;;5.17;100.00;100638.75;5058648;28;19968;-83
2022/12/30 00:06:16;;;;;;;;;;;;;;;5.14;100.00;100642.44;5053386;28;19993;-81
2022/12/30 00:08:48;;;;;;;;;;;;;;;5.13;100.00;100644.22;5059574;28;19928;-82
2022/12/30 00:11:21;;;;;;;;;;;;;;;5.11;100.00;100648.72;5052075;28;20435;-82
2022/12/30 00:33:54;;;;;;;;;;;;;;;4.97;100.00;100658.63;5052974;28;20009;-82
2022/12/30 00:36:21;;;;;;;;;;;;;;;4.97;100.00;100661.25;5058212;28;19923;-83
2022/12/30 00:38:46;;;;;;;;;;;;;;;5.02;100.00;100666.94;5053178;28;20012;-83
2022/12/30 00:43:55;;;;;;;;;;;;;;;4.99;100.00;100651.47;5050106;28;19935;-81
2022/12/30 00:46:22;;;;;;;;;;;;;;;4.98;100.00;100668.13;5057044;28;19954;-83
2022/12/30 00:57:00;;;;;;;;;;;;;;;5.02;100.00;100667.75;5051161;28;19971;-78
2022/12/30 00:59:25;;;;;;;;;;;;;;;5.01;100.00;100670.47;5050645;28;19924;-83
2022/12/30 01:01:50;;;;;;;;;;;;;;;5.00;100.00;100674.06;5051017;28;19982;-82
2022/12/30 01:04:16;;;;;;;;;;;;;;;4.98;100.00;100675.97;5038575;28;19986;-84
2022/12/30 01:06:41;;;;;;;;;;;;;;;4.95;100.00;100677.03;5055630;28;20371;-82
2022/12/30 01:09:06;;;;;;;;;;;;;;;4.90;100.00;100674.78;5057773;28;19969;-83
2022/12/30 01:11:31;;;;;;;;;;;;;;;4.87;100.00;100688.06;5043637;28;19925;-85
2022/12/30 01:13:57;;;;;;;;;;;;;;;4.84;100.00;100697.94;5053335;28;19920;-84
2022/12/30 01:16:22;;;;;;;;;;;;;;;4.83;100.00;100698.88;5055002;28;19974;-83
2022/12/30 01:18:47;;;;;;;;;;;;;;;4.84;100.00;100696.16;5054316;28;19931;-84
2022/12/30 01:21:13;;;;;;;;;;;;;;;4.82;100.00;100708.53;5056845;28;19942;-85
2022/12/30 01:23:38;;;;;;;;;;;;;;;4.83;100.00;100717.19;5054908;28;19921;-82
2022/12/30 01:26:04;;;;;;;;;;;;;;;4.82;100.00;100718.16;5055355;28;20708;-84
2022/12/30 01:28:34;;;;;;;;;;;;;;;4.79;100.00;100734.91;5055092;28;19987;-82
2022/12/30 01:30:59;;;;;;;;;;;;;;;4.77;100.00;100747.25;5053224;28;19931;-84
2022/12/30 01:33:25;;;;;;;;;;;;;;;4.71;100.00;100742.50;5056502;28;19916;-85
2022/12/30 01:35:50;;;;;;;;;;;;;;;4.67;100.00;100761.97;5055700;28;19954;-82
2022/12/30 01:38:15;;;;;;;;;;;;;;;4.61;100.00;100763.22;5055884;28;19932;-83
2022/12/30 01:40:41;;;;;;;;;;;;;;;4.57;100.00;100774.88;5054345;28;19921;-79
2022/12/30 01:43:11;;;;;;;;;;;;;;;4.56;100.00;100772.38;5068786;28;19935;-83
2022/12/30 01:45:36;;;;;;;;;;;;;;;4.52;100.00;100772.59;5055427;28;19920;-83
2022/12/30 01:48:04;;;;;;;;;;;;;;;4.51;100.00;100784.00;5053923;28;19939;-83
2022/12/30 01:50:44;;;;;;;;;;;;;;;4.54;100.00;100793.41;5056543;28;19920;-84
2022/12/30 01:53:09;;;;;;;;;;;;;;;4.53;100.00;100808.25;5055390;28;19970;-84
2022/12/30 01:55:37;;;;;;;;;;;;;;;4.50;100.00;100803.22;5054233;28;20845;-82
2022/12/30 01:58:04;;;;;;;;;;;;;;;4.50;100.00;100808.47;5056331;28;20007;-82
2022/12/30 02:00:30;;;;;;;;;;;;;;;4.49;100.00;100806.81;5055356;28;19952;-85
2022/12/30 02:02:56;;;;;;;;;;;;;;;4.50;100.00;100829.38;5054246;28;20380;-84
2022/12/30 02:05:23;;;;;;;;;;;;;;;4.47;100.00;100820.94;5053977;28;19920;-84
2022/12/30 02:07:52;;;;;;;;;;;;;;;4.46;100.00;100820.06;5062776;28;20018;-84
2022/12/30 02:10:18;;;;;;;;;;;;;;;4.38;100.00;100811.13;5056711;28;19912;-82
2022/12/30 02:12:44;;;;;;;;;;;;;;;4.38;100.00;100819.81;5053726;28;19959;-84
2022/12/30 02:15:09;;;;;;;;;;;;;;;4.35;100.00;100825.25;5052737;28;19924;-84
2022/12/30 02:17:34;;;;;;;;;;;;;;;4.32;100.00;100817.63;5054499;28;19928;-83
2022/12/30 02:20:07;;;;;;;;;;;;;;;4.32;100.00;100820.25;5055563;28;19920;-84
2022/12/30 02:22:39;;;;;;;;;;;;;;;4.26;100.00;100813.69;5056444;28;19975;-85
2022/12/30 02:25:23;;;;;;;;;;;;;;;4.36;100.00;100821.69;5060286;28;20460;-85
2022/12/30 02:28:03;;;;;;;;;;;;;;;4.38;100.00;100832.88;5054738;28;19921;-85
2022/12/30 02:30:47;;;;;;;;;;;;;;;4.37;100.00;100828.59;5054490;28;20283;-84
2022/12/30 02:33:12;;;;;;;;;;;;;;;4.34;100.00;100836.66;5053584;28;19920;-85
2022/12/30 02:35:38;;;;;;;;;;;;;;;4.10;100.00;100806.09;5054522;28;19924;-85
2022/12/30 02:38:18;;;;;;;;;;;;;;;4.36;100.00;100845.22;5054708;28;19963;-85
2022/12/30 02:46:17;;;;;;;;;;;;;;;4.51;100.00;100857.19;5053252;28;19931;-84
2022/12/30 02:48:46;;;;;;;;;;;;;;;4.54;100.00;100856.94;5054026;28;19916;-85
2022/12/30 02:54:04;;;;;;;;;;;;;;;4.59;100.00;100847.94;5030928;28;19921;-83
2022/12/30 02:56:29;;;;;;;;;;;;;;;4.61;100.00;100851.28;5054319;28;19935;-86
2022/12/30 03:04:41;;;;;;;;;;;;;;;4.61;100.00;100851.28;5054041;28;19939;-85
2022/12/30 03:07:21;;;;;;;;;;;;;;;4.64;100.00;100853.66;5054479;28;20335;-85
2022/12/30 03:12:43;;;;;;;;;;;;;;;4.67;100.00;100848.22;5053396;28;20299;-85
2022/12/30 03:15:11;;;;;;;;;;;;;;;4.66;100.00;100857.00;5052106;28;19928;-80
2022/12/30 03:17:39;;;;;;;;;;;;;;;4.63;100.00;100860.69;5054574;28;19924;-85
2022/12/30 03:20:07;;;;;;;;;;;;;;;4.61;100.00;100861.75;5054977;28;19924;-84
2022/12/30 03:28:04;;;;;;;;;;;;;;;4.44;100.00;100855.97;5054081;28;19931;-83
2022/12/30 03:30:32;;;;;;;;;;;;;;;4.39;100.00;100870.28;5051743;28;20335;-83
2022/12/30 03:32:58;;;;;;;;;;;;;;;4.37;100.00;100875.63;5059863;28;19937;-85
2022/12/30 03:35:25;;;;;;;;;;;;;;;4.37;100.00;100869.56;5053126;28;19927;-82
2022/12/30 03:37:53;;;;;;;;;;;;;;;4.34;100.00;100870.63;5059493;28;20288;-85
2022/12/30 03:40:25;;;;;;;;;;;;;;;4.31;100.00;100870.81;5059549;28;20572;-81
2022/12/30 03:42:51;;;;;;;;;;;;;;;4.26;100.00;100879.00;5054182;28;19917;-83
2022/12/30 03:45:17;;;;;;;;;;;;;;;4.23;100.00;100894.06;5052251;28;19917;-86
2022/12/30 03:47:42;;;;;;;;;;;;;;;4.19;100.00;100897.84;5051806;28;20057;-84
2022/12/30 03:50:08;;;;;;;;;;;;;;;4.21;100.00;100891.56;5051365;28;19920;-83
2022/12/30 03:52:33;;;;;;;;;;;;;;;4.22;100.00;100897.59;5052546;28;19959;-84
2022/12/30 03:54:59;;;;;;;;;;;;;;;4.19;100.00;100901.28;5053250;28;19949;-85
2022/12/30 03:57:24;;;;;;;;;;;;;;;4.18;100.00;100917.03;5052225;28;19964;-82
2022/12/30 03:59:50;;;;;;;;;;;;;;;4.17;100.00;100920.63;5052132;28;20354;-84
2022/12/30 04:02:15;;;;;;;;;;;;;;;4.12;100.00;100913.94;5052952;28;19924;-85
2022/12/30 04:04:41;;;;;;;;;;;;;;;4.08;100.00;100912.47;5052309;28;19921;-83
2022/12/30 04:07:06;;;;;;;;;;;;;;;4.00;100.00;100924.38;5052002;28;19927;-83
2022/12/30 04:09:31;;;;;;;;;;;;;;;3.95;100.00;100931.72;5053293;28;20452;-84
2022/12/30 04:11:56;;;;;;;;;;;;;;;3.90;100.00;100924.19;5058943;28;19923;-85
2022/12/30 04:14:22;;;;;;;;;;;;;;;3.85;100.00;100932.31;5051483;28;19925;-84
2022/12/30 04:16:47;;;;;;;;;;;;;;;3.81;100.00;100957.00;5051240;28;19924;-84
2022/12/30 04:19:12;;;;;;;;;;;;;;;3.75;100.00;100967.84;5053502;28;19951;-83
2022/12/30 04:21:38;;;;;;;;;;;;;;;3.71;100.00;100976.81;5052510;28;19986;-83
2022/12/30 04:24:03;;;;;;;;;;;;;;;3.70;100.00;100981.19;5053021;28;20714;-83
2022/12/30 04:26:29;;;;;;;;;;;;;;;3.67;100.00;100986.59;5050784;28;20440;-83
2022/12/30 04:28:54;;;;;;;;;;;;;;;3.64;100.00;100978.16;5052434;28;19916;-84
2022/12/30 04:31:19;;;;;;;;;;;;;;;3.60;100.00;100985.34;5034728;28;19921;-84
2022/12/30 04:33:47;;;;;;;;;;;;;;;3.60;100.00;100987.97;5035719;28;19920;-84
2022/12/30 04:36:12;;;;;;;;;;;;;;;3.61;100.00;100999.22;5057270;28;19923;-84
2022/12/30 04:38:38;;;;;;;;;;;;;;;3.61;100.00;101001.84;5051244;28;19925;-84
2022/12/30 04:41:03;;;;;;;;;;;;;;;3.72;100.00;101015.00;5051852;28;20027;-85
2022/12/30 04:43:28;;;;;;;;;;;;;;;3.76;100.00;101024.31;5053341;28;20371;-83
2022/12/30 04:45:54;;;;;;;;;;;;;;;3.74;100.00;101025.34;5053339;28;20407;-84
2022/12/30 04:48:19;;;;;;;;;;;;;;;3.72;100.00;101030.69;5051017;28;20462;-79
2022/12/30 04:50:45;;;;;;;;;;;;;;;3.68;100.00;101035.28;5042079;28;19924;-83
2022/12/30 04:53:11;;;;;;;;;;;;;;;3.66;100.00;101031.94;5058650;28;19967;-83
2022/12/30 04:55:36;;;;;;;;;;;;;;;3.68;100.00;101044.84;5052092;28;20383;-84
2022/12/30 04:58:01;;;;;;;;;;;;;;;3.67;100.00;101051.03;5051658;28;19989;-83
2022/12/30 05:00:27;;;;;;;;;;;;;;;3.66;100.00;101057.22;5050982;28;19927;-83
2022/12/30 05:02:52;;;;;;;;;;;;;;;3.68;100.00;101050.94;5034695;28;20392;-85
2022/12/30 05:05:17;;;;;;;;;;;;;;;3.66;100.00;101052.81;5034834;28;19932;-84
2022/12/30 05:07:42;;;;;;;;;;;;;;;3.65;100.00;101072.00;5053337;28;20020;-83
2022/12/30 05:10:08;;;;;;;;;;;;;;;3.66;100.00;101068.47;5058989;28;19917;-83
2022/12/30 05:12:33;;;;;;;;;;;;;;;3.68;100.00;101084.00;5050792;28;19921;-82
2022/12/30 05:14:58;;;;;;;;;;;;;;;3.72;100.00;101098.53;5051751;28;19920;-85
2022/12/30 05:17:24;;;;;;;;;;;;;;;3.70;100.00;101098.66;5051963;28;20446;-86
2022/12/30 05:19:49;;;;;;;;;;;;;;;3.78;100.00;101102.53;5042568;28;19928;-82
2022/12/30 05:22:14;;;;;;;;;;;;;;;3.82;100.00;101097.00;5051974;28;19970;-83
2022/12/30 05:27:40;;;;;;;;;;;;;;;3.90;100.00;101099.13;5017625;28;19925;-82
2022/12/30 05:30:05;;;;;;;;;;;;;;;3.93;100.00;101117.22;5017352;28;19947;-83
2022/12/30 05:32:32;;;;;;;;;;;;;;;4.01;100.00;101114.94;5019023;28;20458;-83
2022/12/30 05:34:57;;;;;;;;;;;;;;;4.06;100.00;101107.63;5003283;28;20407;-81
2022/12/30 05:37:22;;;;;;;;;;;;;;;4.09;100.00;101110.06;5001416;28;19959;-84
2022/12/30 05:39:48;;;;;;;;;;;;;;;4.16;100.00;101117.47;5018520;28;19921;-84
2022/12/30 05:42:13;;;;;;;;;;;;;;;4.17;100.00;101122.59;5018428;28;19921;-83
2022/12/30 05:44:38;;;;;;;;;;;;;;;4.22;100.00;101106.59;5018591;28;19917;-83
2022/12/30 05:47:03;;;;;;;;;;;;;;;4.29;100.00;101123.53;5019484;28;20451;-80
2022/12/30 05:49:29;;;;;;;;;;;;;;;4.32;100.00;101107.66;5023172;28;19936;-85
2022/12/30 05:51:54;;;;;;;;;;;;;;;4.34;100.00;101111.03;5006781;28;19933;-83
2022/12/30 05:54:19;;;;;;;;;;;;;;;4.39;100.00;101106.31;5006761;28;20078;-85
2022/12/30 05:56:44;;;;;;;;;;;;;;;4.35;100.00;101097.00;5023558;28;20327;-85
2022/12/30 05:59:10;;;;;;;;;;;;;;;4.39;100.00;101098.47;5021420;28;19917;-85
2022/12/30 06:01:35;;;;;;;;;;;;;;;4.38;100.00;101095.94;5036837;28;19978;-81
2022/12/30 06:04:00;;;;;;;;;;;;;;;4.41;100.00;101091.34;5036754;28;19947;-83
2022/12/30 06:06:26;;;;;;;;;;;;;;;4.40;100.00;101094.94;5055211;28;19924;-83
2022/12/30 06:08:51;;;;;;;;;;;;;;;4.38;100.00;101086.34;5054561;28;20411;-82
2022/12/30 06:11:16;;;;;;;;;;;;;;;4.38;100.00;101081.13;5053730;28;19921;-83
2022/12/30 06:13:42;;;;;;;;;;;;;;;4.39;100.00;101072.34;5054657;28;19999;-85
2022/12/30 06:16:07;;;;;;;;;;;;;;;4.38;100.00;101065.44;5052873;28;19921;-84
2022/12/30 06:18:32;;;;;;;;;;;;;;;4.31;100.00;101054.59;5053540;28;19941;-83
2022/12/30 06:20:57;;;;;;;;;;;;;;;4.31;100.00;101049.34;5056213;28;20010;-82
2022/12/30 06:23:23;;;;;;;;;;;;;;;4.31;100.00;101053.72;5053108;28;19924;-85
2022/12/30 06:25:52;;;;;;;;;;;;;;;4.26;100.00;101040.16;5054648;28;19928;-81
2022/12/30 06:28:18;;;;;;;;;;;;;;;4.24;100.00;101034.19;5044575;28;20011;-81
2022/12/30 06:30:43;;;;;;;;;;;;;;;4.16;100.00;101033.88;5055027;28;20023;-84
2022/12/30 06:33:08;;;;;;;;;;;;;;;4.07;100.00;101024.88;5053318;28;20322;-83
2022/12/30 06:35:33;;;;;;;;;;;;;;;4.01;100.00;101020.09;5038456;28;20014;-84
2022/12/30 06:37:59;;;;;;;;;;;;;;;3.94;100.00;101018.81;5054777;28;19920;-83
2022/12/30 06:40:24;;;;;;;;;;;;;;;3.85;100.00;101021.09;5054165;28;19925;-83
2022/12/30 06:42:49;;;;;;;;;;;;;;;3.81;100.00;101011.81;5053383;28;19924;-82
2022/12/30 06:45:15;;;;;;;;;;;;;;;3.77;100.00;101002.50;5054184;28;19924;-86
2022/12/30 06:47:40;;;;;;;;;;;;;;;3.73;100.00;101005.44;5036813;28;19920;-84
2022/12/30 06:50:05;;;;;;;;;;;;;;;3.60;100.00;100993.19;5052391;28;19931;-84
2022/12/30 06:52:31;;;;;;;;;;;;;;;3.62;100.00;100998.31;5054987;28;20015;-85
2022/12/30 06:54:56;;;;;;;;;;;;;;;3.57;100.00;100993.41;5055047;28;19935;-84
2022/12/30 06:57:21;;;;;;;;;;;;;;;3.55;100.00;100992.66;5054265;28;19924;-85
2022/12/30 06:59:46;;;;;;;;;;;;;;;3.53;100.00;100991.91;5049373;28;20018;-83
2022/12/30 07:02:13;;;;;;;;;;;;;;;3.53;100.00;100999.75;5053069;28;19932;-85
2022/12/30 07:04:38;;;;;;;;;;;;;;;3.50;100.00;100999.94;5053799;28;19917;-84
2022/12/30 07:07:03;;;;;;;;;;;;;;;3.50;100.00;100989.50;5055633;28;19927;-85
2022/12/30 07:09:28;;;;;;;;;;;;;;;3.47;100.00;101000.16;5053577;28;19931;-83
2022/12/30 07:11:54;;;;;;;;;;;;;;;3.47;100.00;101006.19;5052729;28;20003;-85
2022/12/30 07:14:19;;;;;;;;;;;;;;;3.47;100.00;101007.97;5037442;28;19932;-82
2022/12/30 07:16:44;;;;;;;;;;;;;;;3.47;100.00;101010.59;5053784;28;19917;-84
2022/12/30 07:19:11;;;;;;;;;;;;;;;3.50;100.00;101012.97;5053576;28;19973;-84
2022/12/30 07:21:36;;;;;;;;;;;;;;;3.49;100.00;101009.53;5053335;28;19924;-82
2022/12/30 07:24:01;;;;;;;;;;;;;;;3.37;100.00;100980.81;5053801;28;19940;-79
2022/12/30 07:26:26;;;;;;;;;;;;;;;3.50;100.00;100999.94;5053733;28;19956;-82
2022/12/30 07:28:55;;;;;;;;;;;;;;;3.51;100.00;100996.41;5051787;28;19968;-84
2022/12/30 07:31:20;;;;;;;;;;;;;;;3.50;100.00;100989.50;5050256;28;19935;-80
2022/12/30 07:33:46;;;;;;;;;;;;;;;3.48;100.00;100992.22;5053112;28;20421;-84
2022/12/30 07:36:12;;;;;;;;;;;;;;;3.47;100.00;100981.88;5054941;28;20336;-83
2022/12/30 07:38:37;;;;;;;;;;;;;;;3.45;100.00;100981.97;5052416;28;20027;-84
2022/12/30 07:41:03;;;;;;;;;;;;;;;3.46;100.00;100988.88;5040075;28;20008;-80
2022/12/30 07:43:28;;;;;;;;;;;;;;;3.42;100.00;100976.09;5034257;28;20443;-81
2022/12/30 07:45:54;;;;;;;;;;;;;;;3.40;100.00;100972.78;5050311;28;19962;-83
2022/12/30 07:48:19;;;;;;;;;;;;;;;3.36;100.00;100972.16;5052897;28;20043;-81
2022/12/30 07:50:44;;;;;;;;;;;;;;;3.36;100.00;100966.09;5051033;28;19931;-83
2022/12/30 07:53:10;;;;;;;;;;;;;;;3.35;100.00;100964.41;5052395;28;19916;-80
2022/12/30 07:55:37;;;;;;;;;;;;;;;3.31;100.00;100958.56;5051045;28;19923;-83
2022/12/30 07:58:03;;;;;;;;;;;;;;;3.30;100.00;100949.88;5050144;28;19939;-82
2022/12/30 08:00:28;;;;;;;;;;;;;;;3.27;100.00;100952.72;5048689;28;20480;-83
2022/12/30 08:02:53;;;;;;;;;;;;;;;3.28;100.00;100949.16;5051025;28;20011;-83
2022/12/30 08:05:18;;;;;;;;;;;;;;;3.28;100.00;100953.53;5035763;28;19927;-84
2022/12/30 08:07:44;;;;;;;;;;;;;;;3.30;100.00;100947.28;5049842;28;20513;-82
2022/12/30 08:10:09;;;;;;;;;;;;;;;3.30;100.00;100952.50;5040514;28;19924;-81
2022/12/30 08:12:35;;;;;;;;;;;;;;;3.29;100.00;100942.19;5050560;28;19921;-82
2022/12/30 08:15:00;;;;;;;;;;;;;;;3.26;100.00;100945.81;5051175;28;20022;-82
2022/12/30 08:17:26;;;;;;;;;;;;;;;3.24;100.00;100957.28;5051677;28;19913;-82
2022/12/30 08:19:52;;;;;;;;;;;;;;;3.22;100.00;100933.94;5050698;28;19928;-84
2022/12/30 08:22:17;;;;;;;;;;;;;;;3.22;100.00;100944.38;5050770;28;19931;-84
2022/12/30 08:24:42;;;;;;;;;;;;;;;3.19;100.00;100939.31;5050515;28;20612;-80
2022/12/30 08:27:07;;;;;;;;;;;;;;;3.20;100.00;100941.00;5050933;28;19921;-83
2022/12/30 08:29:33;;;;;;;;;;;;;;;3.24;100.00;100945.06;5034059;28;20426;-83
2022/12/30 08:31:58;;;;;;;;;;;;;;;3.27;100.00;100949.28;5034526;28;19925;-81
2022/12/30 08:34:24;;;;;;;;;;;;;;;3.31;100.00;100937.72;5049575;28;19929;-82
2022/12/30 08:36:49;;;;;;;;;;;;;;;3.37;100.00;100936.44;5035120;28;20019;-83
2022/12/30 08:39:14;;;;;;;;;;;;;;;3.41;100.00;100932.69;5049939;28;20399;-80
2022/12/30 08:41:41;;;;;;;;;;;;;;;3.43;100.00;100929.06;5051963;28;19918;-81
2022/12/30 08:44:06;;;;;;;;;;;;;;;3.46;100.00;100914.97;5057130;28;20571;-83
2022/12/30 08:46:33;;;;;;;;;;;;;;;3.49;100.00;100915.59;5048574;28;19959;-83
2022/12/30 08:48:58;;;;;;;;;;;;;;;3.54;100.00;100907.47;5050800;28;19921;-82
2022/12/30 08:51:24;;;;;;;;;;;;;;;3.58;100.00;100903.72;5049842;28;20328;-83
2022/12/30 08:53:49;;;;;;;;;;;;;;;3.60;100.00;100891.41;5051083;28;19920;-84
2022/12/30 08:56:16;;;;;;;;;;;;;;;3.65;100.00;100883.25;5052850;28;20267;-85
2022/12/30 08:58:41;;;;;;;;;;;;;;;3.67;100.00;100882.19;5051812;28;19932;-81
2022/12/30 09:01:27;;;;;;;;;;;;;;;3.71;100.00;100878.44;5050109;28;20571;-83
2022/12/30 09:03:53;;;;;;;;;;;;;;;3.72;100.00;100876.66;5050449;28;20078;-81
2022/12/30 09:06:19;;;;;;;;;;;;;;;3.75;100.00;100857.38;5050705;28;20023;-80
2022/12/30 09:08:45;;;;;;;;;;;;;;;3.78;100.00;100857.16;5059323;28;20367;-83
2022/12/30 09:11:11;;;;;;;;;;;;;;;3.80;100.00;100850.03;5052708;28;20122;-84
2022/12/30 09:13:38;;;;;;;;;;;;;;;3.82;100.00;100838.56;5051944;28;19952;-83
2022/12/30 09:16:04;;;;;;;;;;;;;;;3.87;100.00;100839.06;5052567;28;19913;-83
2022/12/30 09:18:29;;;;;;;;;;;;;;;3.94;100.00;100836.84;5033266;28;20443;-84
2022/12/30 09:20:54;;;;;;;;;;;;;;;3.96;100.00;100834.97;5051288;28;19935;-83
2022/12/30 09:23:20;;;;;;;;;;;;;;;4.01;100.00;100821.59;5052405;28;20649;-81
2022/12/30 09:25:45;;;;;;;;;;;;;;;3.98;100.00;100812.19;5054133;28;19987;-84
2022/12/30 09:28:10;;;;;;;;;;;;;;;4.03;100.00;100802.28;5053049;28;20336;-82
2022/12/30 09:30:36;;;;;;;;;;;;;;;4.03;100.00;100797.06;5062610;28;19916;-80
2022/12/30 09:33:01;;;;;;;;;;;;;;;4.05;100.00;100782.09;5056400;28;20394;-84
2022/12/30 09:35:27;;;;;;;;;;;;;;;4.10;100.00;100774.78;5060698;28;19917;-79
2022/12/30 09:37:52;;;;;;;;;;;;;;;4.15;100.00;100771.81;5037905;28;20368;-80
2022/12/30 09:40:24;;;;;;;;;;;;;;;4.16;100.00;100772.66;5056495;28;20022;-82
2022/12/30 09:45:45;;;;;;;;;;;;;;;4.22;100.00;100756.53;5056330;28;19927;-80
2022/12/30 09:48:13;;;;;;;;;;;;;;;4.26;100.00;100766.66;5056657;28;19966;-82
2022/12/30 09:50:41;;;;;;;;;;;;;;;4.32;100.00;100747.91;5055671;28;19956;-81
2022/12/30 09:53:09;;;;;;;;;;;;;;;4.37;100.00;100742.34;5056084;28;20007;-82
2022/12/30 09:55:56;;;;;;;;;;;;;;;4.41;100.00;100735.97;5053080;28;20471;-78
2022/12/30 09:58:26;;;;;;;;;;;;;;;4.41;100.00;100728.13;5054856;28;19932;-81
2022/12/30 10:00:52;;;;;;;;;;;;;;;4.48;100.00;100724.09;5053147;28;20008;-80
2022/12/30 10:03:22;;;;;;;;;;;;;;;4.46;100.00;100706.88;5053916;28;20019;-79
2022/12/30 10:05:56;;;;;;;;;;;;;;;4.50;100.00;100697.88;5054972;28;19917;-81
2022/12/30 10:08:33;;;;;;;;;;;;;;;4.48;100.00;100699.75;5054528;28;19916;-80
2022/12/30 10:11:07;;;;;;;;;;;;;;;4.51;100.00;100695.13;5053445;28;20007;-80
2022/12/30 10:13:32;;;;;;;;;;;;;;;4.54;100.00;100684.44;5053881;28;20448;-80
2022/12/30 10:16:09;;;;;;;;;;;;;;;4.59;100.00;100681.47;5053460;28;20016;-80
2022/12/30 10:18:41;;;;;;;;;;;;;;;4.64;100.00;100675.91;5052880;28;19920;-82
2022/12/30 10:21:17;;;;;;;;;;;;;;;4.70;100.00;100659.75;5053416;28;20576;-81
2022/12/30 10:23:46;;;;;;;;;;;;;;;4.75;100.00;100644.56;5053034;28;19920;-78
2022/12/30 10:26:24;;;;;;;;;;;;;;;4.77;100.00;100637.44;5052198;28;19917;-79
2022/12/30 10:28:55;;;;;;;;;;;;;;;4.80;100.00;100637.19;5053694;28;19917;-80
2022/12/30 10:31:21;;;;;;;;;;;;;;;4.86;100.00;100623.66;5052435;28;19920;-81
2022/12/30 10:33:51;;;;;;;;;;;;;;;4.90;100.00;100614.63;5059805;28;19942;-80
2022/12/30 10:36:49;;;;;;;;;;;;;;;4.94;100.00;100592.53;5049616;28;19912;-81
2022/12/30 10:39:14;;;;;;;;;;;;;;;5.04;100.00;100576.09;5010878;28;20048;-82
2022/12/30 10:41:59;;;;;;;;;;;;;;;5.11;100.00;100572.03;4993636;28;19920;-79
2022/12/30 10:44:30;;;;;;;;;;;;;;;5.17;100.00;100563.72;5011125;28;19928;-80
2022/12/30 10:47:01;;;;;;;;;;;;;;;5.29;100.00;100560.13;4993863;28;19920;-79
2022/12/30 10:49:29;;;;;;;;;;;;;;;5.34;100.00;100537.03;4993946;28;19955;-82
2022/12/30 10:51:55;;;;;;;;;;;;;;;5.43;100.00;100513.69;5010374;28;19917;-80
2022/12/30 10:54:20;;;;;;;;;;;;;;;5.46;100.00;100503.78;4979991;28;19927;-80
2022/12/30 10:56:45;;;;;;;;;;;;;;;5.52;100.00;100492.00;4995135;28;19922;-80
2022/12/30 10:59:16;;;;;;;;;;;;;;;5.56;100.00;100473.28;5009956;28;19925;-80
2022/12/30 11:01:42;;;;;;;;;;;;;;;5.66;100.00;100452.44;5009117;28;19924;-80
2022/12/30 11:04:27;;;;;;;;;;;;;;;5.83;100.00;100445.75;5011789;28;19929;-79
2022/12/30 11:07:00;;;;;;;;;;;;;;;5.96;100.00;100425.44;5011776;28;19913;-80
2022/12/30 11:09:25;;;;;;;;;;;;;;;6.07;100.00;100418.47;4995250;28;19983;-80
2022/12/30 11:14:43;;;;;;;;;;;;;;;6.17;100.00;100393.16;5026772;28;20333;-80
2022/12/30 11:17:14;;;;;;;;;;;;;;;6.20;100.00;100389.44;5053569;28;19921;-81
2022/12/30 11:19:40;;;;;;;;;;;;;;;6.09;100.00;100379.88;5053603;28;19921;-81
2022/12/30 11:22:05;;;;;;;;;;;;;;;6.09;100.00;100375.47;5052343;28;19923;-81
2022/12/30 11:24:31;;;;;;;;;;;;;;;6.06;100.00;100367.88;5042859;28;20542;-79
2022/12/30 11:26:56;;;;;;;;;;;;;;;6.10;100.00;100358.78;5051838;28;19919;-80
2022/12/30 11:29:22;;;;;;;;;;;;;;;6.08;100.00;100355.47;5051774;28;19979;-80
2022/12/30 11:31:50;;;;;;;;;;;;;;;6.05;100.00;100345.25;5052416;28;19917;-80
2022/12/30 11:34:19;;;;;;;;;;;;;;;6.08;100.00;100336.31;5068109;28;20041;-79
2022/12/30 11:36:44;;;;;;;;;;;;;;;6.08;100.00;100331.91;5052117;28;19925;-81
2022/12/30 11:39:23;;;;;;;;;;;;;;;6.10;100.00;100337.00;5060686;28;19952;-81
2022/12/30 11:41:52;;;;;;;;;;;;;;;6.12;100.00;100320.19;5051875;28;19920;-80
2022/12/30 11:44:19;;;;;;;;;;;;;;;6.13;100.00;100319.22;5054319;28;20773;-80
2022/12/30 11:46:46;;;;;;;;;;;;;;;6.15;100.00;100317.28;5052380;28;19920;-82
2022/12/30 11:49:31;;;;;;;;;;;;;;;6.20;100.00;100311.63;5052948;28;19920;-81
2022/12/30 11:52:07;;;;;;;;;;;;;;;6.24;100.00;100291.25;5053411;28;19920;-80
2022/12/30 11:54:42;;;;;;;;;;;;;;;6.26;100.00;100290.16;5053156;28;20647;-80
2022/12/30 11:57:17;;;;;;;;;;;;;;;6.27;100.00;100277.88;5052499;28;19924;-81
2022/12/30 11:59:44;;;;;;;;;;;;;;;6.28;100.00;100274.28;5056687;28;20500;-79
2022/12/30 12:02:15;;;;;;;;;;;;;;;6.33;100.00;100266.84;5050151;28;19921;-81
2022/12/30 12:04:41;;;;;;;;;;;;;;;6.34;100.00;100263.28;5051788;28;20507;-81
2022/12/30 12:07:16;;;;;;;;;;;;;;;6.37;100.00;100255.94;5036005;28;19935;-82
2022/12/30 12:09:45;;;;;;;;;;;;;;;6.39;100.00;100230.41;5060017;28;19928;-81
2022/12/30 12:12:11;;;;;;;;;;;;;;;6.38;100.00;100227.97;5049349;28;19927;-81
2022/12/30 12:14:45;;;;;;;;;;;;;;;6.44;100.00;100223.94;5049776;28;20416;-82
2022/12/30 12:17:16;;;;;;;;;;;;;;;6.48;100.00;100218.28;5049627;28;20828;-78
2022/12/30 12:19:59;;;;;;;;;;;;;;;6.50;100.00;100213.72;5051574;28;19990;-82
2022/12/30 12:22:32;;;;;;;;;;;;;;;6.53;100.00;100197.75;5051662;28;20070;-81
2022/12/30 12:25:01;;;;;;;;;;;;;;;6.55;100.00;100179.22;5058622;28;19917;-80
2022/12/30 12:27:27;;;;;;;;;;;;;;;6.57;100.00;100169.44;5058233;28;19939;-80
2022/12/30 12:29:53;;;;;;;;;;;;;;;6.60;100.00;100163.91;5051557;28;20328;-80
2022/12/30 12:32:34;;;;;;;;;;;;;;;6.58;100.00;100156.19;5051043;28;19920;-83
2022/12/30 12:35:06;;;;;;;;;;;;;;;6.59;100.00;100149.13;5052031;28;19916;-81
2022/12/30 12:37:34;;;;;;;;;;;;;;;6.55;100.00;100125.03;5059427;28;19921;-82
2022/12/30 12:40:16;;;;;;;;;;;;;;;6.61;100.00;100136.72;5049790;28;20801;-81
2022/12/30 12:42:42;;;;;;;;;;;;;;;6.56;100.00;100137.16;5050521;28;19916;-82
2022/12/30 12:45:15;;;;;;;;;;;;;;;6.55;100.00;100113.69;5051053;28;19943;-82
2022/12/30 12:48:03;;;;;;;;;;;;;;;6.59;100.00;100100.16;5051731;28;19971;-83
2022/12/30 12:50:37;;;;;;;;;;;;;;;6.62;100.00;100098.22;5058627;28;19916;-82
2022/12/30 12:53:02;;;;;;;;;;;;;;;6.63;100.00;100099.88;5067531;28;20404;-82
2022/12/30 12:55:29;;;;;;;;;;;;;;;6.66;100.00;100089.09;5052849;28;19959;-82
2022/12/30 12:58:04;;;;;;;;;;;;;;;6.67;100.00;100082.88;5059981;28;19973;-80
2022/12/30 13:00:35;;;;;;;;;;;;;;;6.68;100.00;100074.03;5056034;28;20490;-83
2022/12/30 13:03:14;;;;;;;;;;;;;;;6.67;100.00;100078.47;5055709;28;19919;-83
2022/12/30 13:05:42;;;;;;;;;;;;;;;6.69;100.00;100073.91;5055245;28;19921;-81
2022/12/30 13:08:34;;;;;;;;;;;;;;;6.70;100.00;100069.47;5057011;28;19924;-83
2022/12/30 13:11:03;;;;;;;;;;;;;;;6.76;100.00;100048.75;5055236;28;20276;-83
2022/12/30 13:13:38;;;;;;;;;;;;;;;6.82;100.00;100043.91;5061528;28;20378;-83
2022/12/30 13:16:18;;;;;;;;;;;;;;;6.78;100.00;100040.75;5055065;28;19924;-84
2022/12/30 13:18:45;;;;;;;;;;;;;;;6.83;100.00;100017.53;5052196;28;20019;-84
2022/12/30 13:21:12;;;;;;;;;;;;;;;6.83;100.00;100014.91;5061934;28;19944;-81
2022/12/30 13:23:43;;;;;;;;;;;;;;;6.87;100.00;100020.69;5053763;28;19935;-84
2022/12/30 13:26:09;;;;;;;;;;;;;;;6.87;100.00;99987.41;5062241;28;19916;-83
2022/12/30 13:28:37;;;;;;;;;;;;;;;6.88;100.00;99981.19;5056235;28;20482;-81
2022/12/30 13:31:12;;;;;;;;;;;;;;;6.92;100.00;99963.34;5054504;28;19920;-84
2022/12/30 13:33:44;;;;;;;;;;;;;;;6.97;100.00;99956.69;5054923;28;20388;-80
2022/12/30 13:36:12;;;;;;;;;;;;;;;7.04;100.00;99950.88;5055637;28;19970;-82
2022/12/30 13:38:47;;;;;;;;;;;;;;;7.06;100.00;99934.00;5060622;28;19927;-80
2022/12/30 13:41:21;;;;;;;;;;;;;;;7.08;100.00;99926.81;5053497;28;19927;-81
2022/12/30 13:43:47;;;;;;;;;;;;;;;7.11;100.00;99913.38;5053129;28;19920;-81